createdAt,value
2023-01-11T00:00:08.502Z,0.60
2023-01-11T00:02:39.721Z,0.50
2023-01-11T00:05:09.763Z,0.70
2023-01-11T00:07:39.408Z,0.50
2023-01-11T00:12:54.759Z,0.70
2023-01-11T00:15:23.053Z,0.38
2023-01-11T00:17:51.183Z,0.40
2023-01-11T00:20:19.664Z,0.50
2023-01-11T00:22:47.861Z,0.40
2023-01-11T00:25:35.059Z,0.50
2023-01-11T00:28:03.952Z,0.43
2023-01-11T00:30:32.576Z,0.50
2023-01-11T00:35:52.526Z,0.50
2023-01-11T00:38:47.025Z,0.30
2023-01-11T00:41:35.371Z,0.45
2023-01-11T00:44:24.029Z,0.30
2023-01-11T00:47:11.312Z,0.57
2023-01-11T00:49:39.537Z,0.40
2023-01-11T00:52:26.341Z,0.63
2023-01-11T00:54:54.681Z,0.50
2023-01-11T00:57:23.445Z,0.70
2023-01-11T01:00:10.803Z,0.80
2023-01-11T01:02:39.025Z,0.70
2023-01-11T01:05:07.982Z,0.60
2023-01-11T01:07:37.070Z,0.70
2023-01-11T01:10:29.523Z,0.68
2023-01-11T01:13:16.036Z,0.70
2023-01-11T01:15:44.262Z,0.57
2023-01-11T01:18:12.591Z,0.63
2023-01-11T01:20:41.115Z,0.68
2023-01-11T01:23:09.315Z,0.90
2023-01-11T01:25:38.220Z,0.60
2023-01-11T01:28:06.460Z,0.50
2023-01-11T01:30:34.689Z,0.40
2023-01-11T01:33:02.808Z,0.50
2023-01-11T01:35:30.932Z,0.40
2023-01-11T01:38:01.809Z,0.60
2023-01-11T01:40:30.410Z,0.70
2023-01-11T01:42:58.592Z,0.70
2023-01-11T01:45:28.782Z,0.60
2023-01-11T01:48:16.626Z,0.52
2023-01-11T01:50:55.075Z,1.10
2023-01-11T01:53:32.231Z,0.70
2023-01-11T01:56:03.899Z,0.82
2023-01-11T01:58:45.690Z,0.82
2023-01-11T02:01:33.625Z,0.55
2023-01-11T02:04:05.364Z,0.10
2023-01-11T02:06:35.052Z,0.10
2023-01-11T02:09:09.379Z,0.10
2023-01-11T02:11:43.549Z,0.20
2023-01-11T02:14:32.631Z,0.35
2023-01-11T02:17:00.846Z,0.50
2023-01-11T02:20:02.545Z,0.50
2023-01-11T02:23:16.751Z,0.60
2023-01-11T02:26:21.680Z,0.50
2023-01-11T02:29:08.103Z,0.10
2023-01-11T02:32:17.851Z,0.30
2023-01-11T02:35:44.637Z,0.52
2023-01-11T02:39:15.049Z,0.00
2023-01-11T02:42:14.173Z,0.00
2023-01-11T02:45:14.447Z,0.00
2023-01-11T02:48:04.030Z,0.00
2023-01-11T02:50:39.689Z,0.00
2023-01-11T02:53:18.983Z,0.00
2023-01-11T02:58:40.855Z,0.10
2023-01-11T03:01:10.143Z,0.00
2023-01-11T03:03:38.286Z,0.10
2023-01-11T03:06:14.174Z,0.03
2023-01-11T03:09:28.807Z,0.00
2023-01-11T03:12:27.905Z,0.00
2023-01-11T03:15:21.290Z,0.00
2023-01-11T03:17:52.200Z,0.10
2023-01-11T03:20:34.251Z,0.00
2023-01-11T03:23:37.859Z,0.05
2023-01-11T03:26:32.529Z,0.00
2023-01-11T03:29:11.319Z,0.05
2023-01-11T03:31:53.996Z,0.00
2023-01-11T03:34:57.556Z,0.00
2023-01-11T03:37:37.842Z,0.00
2023-01-11T03:40:20.464Z,0.32
2023-01-11T03:43:11.119Z,0.10
2023-01-11T03:46:02.385Z,0.10
2023-01-11T03:48:39.087Z,0.00
2023-01-11T03:51:13.191Z,0.00
2023-01-11T03:53:46.063Z,0.13
2023-01-11T03:56:19.017Z,0.00
2023-01-11T03:59:05.791Z,0.00
2023-01-11T04:01:34.114Z,0.10
2023-01-11T04:04:02.383Z,0.08
2023-01-11T04:06:32.879Z,0.10
2023-01-11T04:09:01.322Z,0.10
2023-01-11T04:11:29.612Z,0.17
2023-01-11T04:13:57.803Z,0.10
2023-01-11T04:16:44.536Z,0.10
2023-01-11T04:19:12.789Z,0.00
2023-01-11T04:21:59.252Z,0.10
2023-01-11T04:24:27.411Z,0.00
2023-01-11T04:26:55.589Z,0.10
2023-01-11T04:29:23.779Z,0.10
2023-01-11T04:31:52.057Z,0.10
2023-01-11T04:34:20.531Z,0.08
2023-01-11T04:36:48.710Z,0.10
2023-01-11T04:39:16.798Z,0.10
2023-01-11T04:42:03.665Z,0.13
2023-01-11T04:44:31.892Z,0.10
2023-01-11T04:47:20.795Z,0.30
2023-01-11T04:50:08.792Z,0.10
2023-01-11T04:52:55.663Z,0.10
2023-01-11T04:55:23.973Z,0.03
2023-01-11T04:57:52.217Z,0.20
2023-01-11T05:00:20.721Z,0.10
2023-01-11T05:02:48.966Z,0.10
2023-01-11T05:05:36.101Z,0.20
2023-01-11T05:08:04.434Z,0.20
2023-01-11T05:10:33.036Z,0.25
2023-01-11T05:13:01.393Z,0.20
2023-01-11T05:15:29.628Z,0.20
2023-01-11T05:17:57.780Z,0.20
2023-01-11T05:21:04.713Z,0.57
2023-01-11T05:23:53.509Z,0.30
2023-01-11T05:26:24.776Z,0.40
2023-01-11T05:28:54.300Z,0.40
2023-01-11T05:31:23.611Z,0.30
2023-01-11T05:33:52.156Z,0.38
2023-01-11T05:36:22.621Z,0.15
2023-01-11T05:38:52.428Z,0.17
2023-01-11T05:41:22.867Z,0.10
2023-01-11T05:44:26.924Z,0.10
2023-01-11T05:46:55.017Z,0.20
2023-01-11T05:49:23.080Z,0.20
2023-01-11T05:51:51.193Z,0.20
2023-01-11T05:54:19.315Z,0.20
2023-01-11T05:56:47.428Z,0.15
2023-01-11T05:59:15.529Z,0.90
2023-01-11T06:04:47.813Z,0.20
2023-01-11T06:07:34.152Z,0.60
2023-01-11T06:10:02.425Z,0.50
2023-01-11T06:12:31.120Z,0.43
2023-01-11T06:14:59.324Z,0.25
2023-01-11T06:17:27.362Z,0.30
2023-01-11T06:19:55.404Z,0.20
2023-01-11T06:22:23.512Z,0.30
2023-01-11T06:24:51.581Z,0.50
2023-01-11T06:27:19.625Z,0.40
2023-01-11T06:29:47.818Z,0.40
2023-01-11T06:32:15.877Z,0.47
2023-01-11T06:34:43.808Z,0.30
2023-01-11T06:37:12.124Z,0.55
2023-01-11T06:39:40.272Z,0.50
2023-01-11T06:42:26.726Z,0.50
2023-01-11T06:44:54.788Z,0.30
2023-01-11T06:47:22.867Z,0.32
2023-01-11T06:49:50.901Z,0.40
2023-01-11T06:52:18.962Z,0.52
2023-01-11T06:54:47.063Z,0.30
2023-01-11T06:57:15.294Z,0.45
2023-01-11T06:59:44.207Z,0.30
2023-01-11T07:02:12.672Z,0.20
2023-01-11T07:04:42.713Z,0.40
2023-01-11T07:07:10.861Z,0.32
2023-01-11T07:09:38.966Z,0.30
2023-01-11T07:12:07.117Z,0.52
2023-01-11T07:14:35.181Z,0.20
2023-01-11T07:17:03.331Z,0.40
2023-01-11T07:19:31.320Z,0.60
2023-01-11T07:21:59.398Z,0.30
2023-01-11T07:27:31.485Z,0.43
2023-01-11T07:30:00.269Z,0.60
2023-01-11T07:32:29.296Z,0.50
2023-01-11T07:34:57.402Z,0.30
2023-01-11T07:37:45.853Z,0.30
2023-01-11T07:40:16.685Z,0.63
2023-01-11T07:43:08.170Z,0.63
2023-01-11T07:45:45.460Z,0.50
2023-01-11T07:48:16.367Z,0.40
2023-01-11T07:50:45.340Z,0.57
2023-01-11T07:53:14.200Z,0.40
2023-01-11T07:55:42.371Z,0.30
2023-01-11T07:58:13.883Z,0.40
2023-01-11T08:00:42.192Z,0.60
2023-01-11T08:03:10.881Z,0.50
2023-01-11T08:05:39.592Z,0.70
2023-01-11T08:08:07.923Z,0.50
2023-01-11T08:10:35.990Z,0.32
2023-01-11T08:13:22.629Z,0.50
2023-01-11T08:15:50.797Z,0.47
2023-01-11T08:18:20.067Z,0.32
2023-01-11T08:20:48.092Z,0.40
2023-01-11T08:23:16.231Z,0.30
2023-01-11T08:25:44.543Z,0.40
2023-01-11T08:28:12.753Z,0.40
2023-01-11T08:30:40.807Z,0.55
2023-01-11T08:33:10.634Z,0.60
2023-01-11T08:35:39.530Z,0.60
2023-01-11T08:38:08.432Z,0.90
2023-01-11T08:40:37.206Z,0.40
2023-01-11T08:43:05.353Z,0.70
2023-01-11T08:45:34.464Z,0.50
2023-01-11T08:48:02.492Z,0.60
2023-01-11T08:50:30.524Z,0.40
2023-01-11T08:52:58.506Z,0.40
2023-01-11T08:55:26.589Z,0.55
2023-01-11T08:57:57.519Z,0.70
2023-01-11T09:00:25.579Z,0.40
2023-01-11T09:02:53.642Z,0.38
2023-01-11T09:05:21.702Z,0.50
2023-01-11T09:07:49.705Z,2.40
2023-01-11T09:10:17.796Z,1.10
2023-01-11T09:12:45.898Z,0.60
2023-01-11T09:15:14.117Z,0.60
2023-01-11T09:17:42.161Z,0.85
2023-01-11T09:20:12.254Z,0.73
2023-01-11T09:22:40.922Z,0.73
2023-01-11T09:25:09.968Z,1.15
2023-01-11T09:27:37.995Z,0.90
2023-01-11T09:30:06.642Z,0.82
2023-01-11T09:32:54.705Z,0.88
2023-01-11T09:35:22.952Z,1.10
2023-01-11T09:37:56.339Z,0.47
2023-01-11T09:40:42.443Z,0.98
2023-01-11T09:43:15.247Z,0.90
2023-01-11T09:45:47.126Z,0.43
2023-01-11T09:48:26.935Z,0.55
2023-01-11T09:50:55.892Z,0.68
2023-01-11T09:53:32.529Z,0.40
2023-01-11T09:56:04.067Z,0.30
2023-01-11T09:58:56.012Z,0.30
2023-01-11T10:01:31.393Z,0.52
2023-01-11T10:04:26.226Z,0.57
2023-01-11T10:07:17.920Z,0.65
2023-01-11T10:18:41.726Z,0.60
2023-01-11T10:19:37.401Z,0.70
2023-01-11T10:22:17.131Z,0.50
2023-01-11T10:24:50.633Z,0.50
2023-01-11T10:30:56.367Z,0.80
2023-01-11T10:34:02.951Z,0.80
2023-01-11T10:37:07.379Z,0.65
2023-01-11T10:39:51.547Z,0.70
2023-01-11T10:42:30.542Z,0.60
2023-01-11T10:45:21.105Z,0.80
2023-01-11T10:47:56.221Z,0.75
2023-01-11T10:50:48.794Z,0.77
2023-01-11T10:53:31.968Z,0.45
2023-01-11T10:57:01.948Z,0.68
2023-01-11T10:59:56.503Z,1.20
2023-01-11T11:02:41.081Z,0.55
2023-01-11T11:05:44.265Z,0.60
2023-01-11T11:08:42.212Z,0.55
2023-01-11T11:11:16.440Z,0.60
2023-01-11T11:14:00.160Z,0.57
2023-01-11T11:17:03.196Z,1.20
2023-01-11T11:19:33.482Z,0.50
2023-01-11T11:22:01.662Z,0.60
2023-01-11T11:24:52.592Z,0.52
2023-01-11T11:27:35.461Z,0.50
2023-01-11T11:30:04.797Z,0.70
2023-01-11T11:32:37.041Z,1.00
2023-01-11T11:35:08.150Z,0.75
2023-01-11T11:37:42.415Z,0.52
2023-01-11T11:40:29.371Z,0.40
2023-01-11T11:43:23.006Z,0.52
2023-01-11T11:46:00.622Z,0.80
2023-01-11T11:48:31.598Z,0.50
2023-01-11T11:51:05.685Z,0.73
2023-01-11T11:53:33.969Z,0.30
2023-01-11T11:56:18.359Z,0.40
2023-01-11T11:58:47.551Z,0.40
2023-01-11T12:01:26.726Z,0.85
2023-01-11T12:04:38.349Z,0.40
2023-01-11T12:07:17.741Z,0.40
2023-01-11T12:09:57.895Z,0.43
2023-01-11T12:12:29.235Z,0.30
2023-01-11T12:15:22.641Z,0.43
2023-01-11T12:17:50.857Z,0.40
2023-01-11T12:20:30.368Z,0.80
2023-01-11T12:23:25.818Z,0.30
2023-01-11T12:26:47.139Z,0.40
2023-01-11T12:29:46.873Z,0.50
2023-01-11T12:32:38.088Z,0.30
2023-01-11T12:35:25.567Z,0.70
2023-01-11T12:38:19.878Z,0.40
2023-01-11T12:44:43.037Z,1.02
2023-01-11T12:47:44.785Z,0.55
2023-01-11T12:50:32.000Z,0.93
2023-01-11T12:53:00.116Z,0.50
2023-01-11T12:55:46.761Z,0.80
2023-01-11T12:58:23.165Z,0.60
2023-01-11T13:01:13.060Z,0.50
2023-01-11T13:04:11.879Z,0.40
2023-01-11T13:06:40.040Z,0.60
2023-01-11T13:09:31.968Z,0.30
2023-01-11T13:12:05.782Z,0.50
2023-01-11T13:14:52.817Z,0.50
2023-01-11T13:17:34.653Z,0.52
2023-01-11T13:20:26.547Z,0.47
2023-01-11T13:23:12.381Z,0.50
2023-01-11T13:25:44.582Z,0.65
2023-01-11T13:31:24.440Z,0.50
2023-01-11T13:33:59.261Z,0.40
2023-01-11T13:36:36.730Z,0.30
2023-01-11T13:39:17.009Z,0.50
2023-01-11T13:41:50.200Z,0.20
2023-01-11T13:44:27.948Z,0.22
2023-01-11T13:47:08.127Z,0.63
2023-01-11T13:49:50.539Z,0.50
2023-01-11T13:52:41.122Z,0.40
2023-01-11T13:55:25.434Z,0.60
2023-01-11T13:58:42.829Z,0.77
2023-01-11T14:01:23.029Z,0.43
2023-01-11T14:04:22.741Z,0.40
2023-01-11T14:07:05.752Z,0.40
2023-01-11T14:09:43.916Z,0.65
2023-01-11T14:12:32.874Z,0.73
2023-01-11T14:15:24.246Z,0.60
2023-01-11T14:17:52.344Z,0.80
2023-01-11T14:20:57.661Z,0.50
2023-01-11T14:23:43.738Z,0.40
2023-01-11T14:26:26.861Z,0.40
2023-01-11T14:29:12.790Z,0.60
2023-01-11T14:32:13.137Z,0.35
2023-01-11T14:34:55.071Z,0.90
2023-01-11T14:37:55.494Z,0.40
2023-01-11T14:40:40.432Z,0.50
2023-01-11T14:43:49.920Z,0.50
2023-01-11T14:46:36.567Z,0.30
2023-01-11T14:49:27.933Z,0.52
2023-01-11T14:52:12.194Z,0.73
2023-01-11T14:54:45.088Z,0.47
2023-01-11T14:57:34.710Z,0.70
2023-01-11T15:00:04.121Z,0.35
2023-01-11T15:02:32.345Z,0.47
2023-01-11T15:05:00.537Z,0.20
2023-01-11T15:07:31.246Z,0.43
2023-01-11T15:10:03.420Z,0.40
2023-01-11T15:12:41.665Z,0.50
2023-01-11T15:15:23.196Z,0.40
2023-01-11T15:18:15.584Z,0.63
2023-01-11T15:20:57.099Z,0.50
2023-01-11T15:23:26.379Z,0.50
2023-01-11T15:26:06.404Z,0.80
2023-01-11T15:28:45.087Z,0.55
2023-01-11T15:31:34.729Z,0.60
2023-01-11T15:34:17.746Z,0.35
2023-01-11T15:37:11.821Z,0.50
2023-01-11T15:39:46.015Z,0.47
2023-01-11T15:42:29.788Z,0.43
2023-01-11T15:45:28.019Z,0.60
2023-01-11T15:48:17.811Z,0.32
2023-01-11T15:51:45.806Z,1.02
2023-01-11T15:54:32.435Z,0.40
2023-01-11T15:57:34.112Z,0.70
2023-01-11T16:00:26.288Z,0.50
2023-01-11T16:03:29.373Z,0.40
2023-01-11T16:06:03.246Z,0.40
2023-01-11T16:08:39.627Z,0.50
2023-01-11T16:11:30.683Z,0.47
2023-01-11T16:14:06.881Z,0.63
2023-01-11T16:16:41.655Z,0.40
2023-01-11T16:19:20.322Z,0.50
2023-01-11T16:21:52.237Z,0.40
2023-01-11T16:24:25.525Z,0.40
2023-01-11T16:27:01.417Z,0.50
2023-01-11T16:29:37.855Z,0.50
2023-01-11T16:32:08.422Z,0.50
2023-01-11T16:34:46.397Z,0.70
2023-01-11T16:37:29.828Z,0.40
2023-01-11T16:42:33.299Z,0.50
2023-01-11T16:45:08.324Z,0.52
2023-01-11T16:47:36.434Z,0.38
2023-01-11T16:50:22.517Z,0.40
2023-01-11T16:53:07.924Z,0.70
2023-01-11T16:55:47.908Z,0.40
2023-01-11T16:58:37.214Z,0.43
2023-01-11T17:01:12.994Z,0.50
2023-01-11T17:03:47.119Z,0.40
2023-01-11T17:06:17.252Z,0.75
2023-01-11T17:08:50.650Z,0.47
2023-01-11T17:11:27.460Z,1.13
2023-01-11T17:14:34.332Z,0.60
2023-01-11T17:17:05.480Z,0.38
2023-01-11T17:19:37.770Z,0.50
2023-01-11T17:22:17.754Z,0.75
2023-01-11T17:24:59.988Z,0.88
2023-01-11T17:27:31.503Z,0.40
2023-01-11T17:30:01.027Z,0.30
2023-01-11T17:32:44.408Z,0.40
2023-01-11T17:35:22.193Z,0.43
2023-01-11T17:37:53.204Z,0.57
2023-01-11T17:40:30.545Z,0.43
2023-01-11T17:43:31.062Z,0.20
2023-01-11T17:46:02.817Z,0.68
2023-01-11T17:48:31.974Z,0.40
2023-01-11T17:51:02.519Z,0.60
2023-01-11T17:53:35.424Z,0.35
2023-01-11T17:56:06.477Z,0.65
2023-01-11T17:58:36.139Z,0.60
2023-01-11T18:01:14.155Z,0.45
2023-01-11T18:03:59.501Z,0.88
2023-01-11T18:06:44.451Z,0.60
2023-01-11T18:09:30.938Z,0.90
2023-01-11T18:12:15.641Z,0.40
2023-01-11T18:14:56.840Z,0.60
2023-01-11T18:17:36.476Z,0.63
2023-01-11T18:20:30.255Z,0.45
2023-01-11T18:23:19.841Z,0.77
2023-01-11T18:28:18.576Z,0.50
2023-01-11T18:30:53.898Z,0.70
2023-01-11T18:33:24.479Z,1.13
2023-01-11T18:36:01.151Z,0.82
2023-01-11T18:38:36.486Z,0.80
2023-01-11T18:41:25.964Z,0.82
2023-01-11T18:43:55.269Z,0.57
2023-01-11T18:46:23.550Z,0.80
2023-01-11T18:48:51.730Z,0.70
2023-01-11T18:51:27.365Z,0.60
2023-01-11T18:53:55.480Z,0.50
2023-01-11T18:56:41.957Z,0.57
2023-01-11T18:59:10.247Z,0.80
2023-01-11T19:01:52.819Z,0.80
2023-01-11T19:04:26.953Z,0.68
2023-01-11T19:06:55.111Z,1.45
2023-01-11T19:09:23.284Z,1.17
2023-01-11T19:11:51.561Z,0.68
2023-01-11T19:14:19.711Z,0.60
2023-01-11T19:16:47.822Z,0.60
2023-01-11T19:19:15.965Z,0.98
2023-01-11T19:21:44.086Z,1.20
2023-01-11T19:24:12.583Z,1.25
2023-01-11T19:26:40.905Z,1.17
2023-01-11T19:29:27.829Z,0.82
2023-01-11T19:31:56.060Z,0.70
2023-01-11T19:34:24.769Z,0.77
2023-01-11T19:36:53.143Z,0.60
2023-01-11T19:39:21.410Z,0.70
2023-01-11T19:41:58.214Z,0.65
2023-01-11T19:44:30.611Z,0.93
2023-01-11T19:47:12.012Z,0.82
2023-01-11T19:49:41.787Z,1.50
2023-01-11T19:52:28.437Z,1.33
2023-01-11T19:54:57.111Z,1.90
2023-01-11T19:57:25.199Z,0.82
2023-01-11T19:59:53.350Z,1.08
2023-01-11T20:02:22.413Z,2.60
2023-01-11T20:04:50.730Z,1.00
2023-01-11T20:07:18.788Z,0.63
2023-01-11T20:09:46.952Z,0.70
2023-01-11T20:12:18.064Z,0.50
2023-01-11T20:14:46.743Z,0.68
2023-01-11T20:17:19.502Z,0.93
2023-01-11T20:19:54.712Z,0.60
2023-01-11T20:22:24.398Z,0.70
2023-01-11T20:24:52.544Z,0.50
2023-01-11T20:27:20.765Z,0.40
2023-01-11T20:29:48.954Z,0.50
2023-01-11T20:32:39.233Z,0.70
2023-01-11T20:35:05.853Z,1.10
2023-01-11T20:37:33.937Z,2.85
2023-01-11T20:40:02.096Z,2.22
2023-01-11T20:42:31.535Z,2.10
2023-01-11T20:45:18.090Z,1.67
2023-01-11T20:48:04.922Z,0.70
2023-01-11T20:50:33.871Z,0.40
2023-01-11T20:53:20.452Z,0.43
2023-01-11T20:55:48.734Z,0.57
2023-01-11T20:58:16.697Z,0.80
2023-01-11T21:00:44.940Z,1.20
2023-01-11T21:03:31.497Z,1.10
2023-01-11T21:06:03.036Z,1.02
2023-01-11T21:08:31.347Z,0.90
2023-01-11T21:11:06.649Z,1.77
2023-01-11T21:19:14.657Z,0.50
2023-01-11T21:21:43.506Z,0.60
2023-01-11T21:24:16.015Z,0.70
2023-01-11T21:26:46.060Z,1.45
2023-01-11T21:29:33.054Z,0.80
2023-01-11T21:32:01.413Z,0.68
2023-01-11T21:34:29.490Z,0.52
2023-01-11T21:36:57.610Z,0.30
2023-01-11T21:39:26.893Z,0.47
2023-01-11T21:41:59.300Z,0.50
2023-01-11T21:44:33.640Z,0.40
2023-01-11T21:47:04.311Z,0.43
2023-01-11T21:49:32.992Z,0.50
2023-01-11T21:52:01.222Z,0.50
2023-01-11T21:54:49.954Z,0.45
2023-01-11T21:57:18.150Z,0.45
2023-01-11T21:59:46.395Z,0.30
2023-01-11T22:02:14.608Z,0.40
2023-01-11T22:04:42.718Z,0.35
2023-01-11T22:07:10.813Z,0.38
2023-01-11T22:09:41.214Z,0.70
2023-01-11T22:12:12.940Z,0.40
2023-01-11T22:14:43.881Z,0.50
2023-01-11T22:17:12.180Z,0.60
2023-01-11T22:19:40.327Z,0.20
2023-01-11T22:22:08.782Z,0.22
2023-01-11T22:24:55.212Z,0.15
2023-01-11T22:27:42.364Z,0.30
2023-01-11T22:30:11.341Z,0.25
2023-01-11T22:32:40.573Z,0.30
2023-01-11T22:35:09.535Z,0.25
2023-01-11T22:37:37.937Z,0.13
2023-01-11T22:40:06.879Z,0.20
2023-01-11T22:42:35.078Z,0.40
2023-01-11T22:45:21.594Z,0.38
2023-01-11T22:47:49.854Z,0.20
2023-01-11T22:50:18.186Z,0.28
2023-01-11T22:52:46.470Z,0.22
2023-01-11T22:55:14.803Z,0.40
2023-01-11T22:58:01.297Z,0.28
2023-01-11T23:00:29.538Z,0.30
2023-01-11T23:02:57.752Z,0.20
2023-01-11T23:05:27.276Z,0.10
2023-01-11T23:07:55.535Z,0.30
2023-01-11T23:10:23.826Z,0.20
2023-01-11T23:13:10.586Z,0.30
2023-01-11T23:15:39.831Z,0.30
2023-01-11T23:18:10.001Z,0.30
2023-01-11T23:20:38.178Z,0.40
2023-01-11T23:23:06.523Z,0.38
2023-01-11T23:25:34.881Z,0.30
2023-01-11T23:28:03.037Z,0.10
2023-01-11T23:30:31.333Z,0.30
2023-01-11T23:32:59.578Z,0.20
2023-01-11T23:35:27.851Z,0.20
2023-01-11T23:37:56.051Z,0.30
2023-01-11T23:40:24.281Z,0.20
2023-01-11T23:42:52.462Z,0.17
2023-01-11T23:45:20.710Z,0.60
2023-01-11T23:47:49.744Z,0.20
2023-01-11T23:50:18.103Z,0.13
2023-01-11T23:52:46.284Z,0.13
2023-01-11T23:55:14.749Z,0.40
2023-01-11T23:58:02.870Z,0.10
